This is the latest recevied weather packets stored in our database for station/object KB4NWJ. If no packets are shown the sender has not sent any weather packets the latest 1 day(s).
| Time | Temp. | Humidity | Pressure | Rain* | Wind** | Luminosity | Snow |
|---|---|---|---|---|---|---|---|
| 1778117944 | 22.22° C | 96% | 1013.6 hPa | 0 mm | - | 0 W/m² | - |
| 1778117642 | 22.22° C | 96% | 1013.7 hPa | 0 mm | - | 0 W/m² | - |
| 1778117339 | 22.22° C | 96% | 1013.7 hPa | 0 mm | - | 0 W/m² | - |
| 1778117035 | 22.22° C | 95% | 1013.5 hPa | 0 mm | - | 0 W/m² | - |
| 1778116727 | 22.22° C | 96% | 1013.3 hPa | 0 mm | - | 0 W/m² | - |
| 1778116424 | 21.67° C | 96% | 1013.6 hPa | 0 mm | - | 0 W/m² | - |
| 1778115213 | 21.67° C | 98% | 1013.7 hPa | 0 mm | - | 0 W/m² | - |
| 1778114910 | 21.67° C | 98% | 1013.3 hPa | 0 mm | - | 0 W/m² | - |
| 1778114607 | 21.67° C | 98% | 1013.5 hPa | 0 mm | - | 0 W/m² | - |
| 1778114304 | 21.67° C | 98% | 1013.6 hPa | 0 mm | - | 0 W/m² | - |
| 1778113089 | 21.67° C | 98% | 1013.8 hPa | 0 mm | - | 0 W/m² | - |
| 1778112786 | 21.67° C | 98% | 1013.8 hPa | 0 mm | - | 0 W/m² | - |
| 1778112178 | 21.67° C | 98% | 1013.6 hPa | 0 mm | - | 1 W/m² | - |
| 1778109750 | 22.22° C | 97% | 1013.5 hPa | 0 mm | - | 8 W/m² | - |
| 1778109146 | 22.22° C | 96% | 1013.4 hPa | 0 mm | - | 36 W/m² | - |
| 1778107629 | 22.22° C | 94% | 1013.9 hPa | 0 mm | - | 30 W/m² | - |
| 1778103988 | 23.89° C | 86% | 1013.6 hPa | 0 mm | - | 27 W/m² | - |
| 1778098532 | 23.33° C | 89% | 1014.7 hPa | 0 mm | - | 72 W/m² | - |
| 1778098228 | 23.33° C | 88% | 1014.6 hPa | 0 mm | - | 24 W/m² | - |
| 1778097621 | 23.89° C | 85% | 1015 hPa | 0 mm | - | 28 W/m² | - |
| 1778097014 | 24.44° C | 81% | 1015.1 hPa | 0 mm | - | 64 W/m² | - |
| 1778096712 | 24.44° C | 80% | 1015.2 hPa | 0 mm | - | 51 W/m² | - |
| 1778096106 | 24.44° C | 79% | 1015.4 hPa | 0 mm | - | 121 W/m² | - |
| 1778095500 | 25° C | 78% | 1015.6 hPa | 0 mm | - | 153 W/m² | - |
| 1778094893 | 25° C | 78% | 1015.7 hPa | 0 mm | - | 110 W/m² | - |
* Rain latest hour (hover to see other rain measurements)
** Current wind speed in m/s (hover to see current wind gust speed)